<?xml version="1.0" encoding="UTF-8" standalone="no" ?>
<gpx xmlns="http://www.topografix.com/GPX/1/1" xmlns:xsi="http://www.w3.org/2001/XMLSchema-instance" xsi:schemaLocation="http://www.topografix.com/GPX/1/1 http://www.topografix.com/GPX/1/1/gpx.xsd" version="1.1" creator="VisuGPX - https://www.visugpx.com">
  <metadata>
    <name>Velo</name>
    <desc><![CDATA[idor:10246719_102515280_10794639_12973163_1418743_13428926_12998252_13558460_14716825_14357364_14251590]]></desc>
  </metadata>
  <trk>
    <name><![CDATA[Velo_OrvaultVigneuxGarambeau_38km-14118743]]></name>
    <extensions>
      <line xmlns="http://www.topografix.com/GPX/gpx_style/0/2">
        <color>FF00FF</color>
        <width>4</width>
      </line>
    </extensions>
    <trkseg>
      <trkpt lat="47.26846" lon="-1.54578">
        <ele>29</ele>
        <time>2023-11-15T07:52:33Z</time>
      </trkpt>
      <trkpt lat="47.26251" lon="-1.54913">
        <ele>8</ele>
        <time>2023-11-15T07:54:26Z</time>
      </trkpt>
      <trkpt lat="47.25983" lon="-1.55694">
        <ele>11</ele>
        <time>2023-11-15T07:56:12Z</time>
      </trkpt>
      <trkpt lat="47.26432" lon="-1.57376">
        <ele>34</ele>
        <time>2023-11-15T07:59:50Z</time>
      </trkpt>
      <trkpt lat="47.2635" lon="-1.58011">
        <ele>44</ele>
        <time>2023-11-15T08:01:08Z</time>
      </trkpt>
      <trkpt lat="47.26793" lon="-1.58294">
        <ele>49</ele>
        <time>2023-11-15T08:02:34Z</time>
      </trkpt>
      <trkpt lat="47.26706" lon="-1.58663">
        <ele>51</ele>
        <time>2023-11-15T08:03:21Z</time>
      </trkpt>
      <trkpt lat="47.27323" lon="-1.59238">
        <ele>46</ele>
        <time>2023-11-15T08:05:31Z</time>
      </trkpt>
      <trkpt lat="47.27216" lon="-1.5927">
        <ele>49</ele>
        <time>2023-11-15T08:05:51Z</time>
      </trkpt>
      <trkpt lat="47.27278" lon="-1.59392">
        <ele>48</ele>
        <time>2023-11-15T08:06:09Z</time>
      </trkpt>
      <trkpt lat="47.27254" lon="-1.59693">
        <ele>50</ele>
        <time>2023-11-15T08:06:46Z</time>
      </trkpt>
      <trkpt lat="47.26703" lon="-1.60112">
        <ele>40</ele>
        <time>2023-11-15T08:08:36Z</time>
      </trkpt>
      <trkpt lat="47.26887" lon="-1.6102">
        <ele>52</ele>
        <time>2023-11-15T08:10:30Z</time>
      </trkpt>
      <trkpt lat="47.26987" lon="-1.6174">
        <ele>48</ele>
        <time>2023-11-15T08:11:59Z</time>
      </trkpt>
      <trkpt lat="47.27185" lon="-1.62067">
        <ele>37</ele>
        <time>2023-11-15T08:12:52Z</time>
      </trkpt>
      <trkpt lat="47.27101" lon="-1.62475">
        <ele>48</ele>
        <time>2023-11-15T08:13:44Z</time>
      </trkpt>
      <trkpt lat="47.27474" lon="-1.63702">
        <ele>62</ele>
        <time>2023-11-15T08:16:26Z</time>
      </trkpt>
      <trkpt lat="47.27572" lon="-1.65809">
        <ele>64</ele>
        <time>2023-11-15T08:20:41Z</time>
      </trkpt>
      <trkpt lat="47.27258" lon="-1.66502">
        <ele>62</ele>
        <time>2023-11-15T08:22:21Z</time>
      </trkpt>
      <trkpt lat="47.27503" lon="-1.67065">
        <ele>65</ele>
        <time>2023-11-15T08:23:42Z</time>
      </trkpt>
      <trkpt lat="47.2767" lon="-1.67455">
        <ele>69</ele>
        <time>2023-11-15T08:24:38Z</time>
      </trkpt>
      <trkpt lat="47.28708" lon="-1.67642">
        <ele>58</ele>
        <time>2023-11-15T08:27:44Z</time>
      </trkpt>
      <trkpt lat="47.28864" lon="-1.67397">
        <ele>61</ele>
        <time>2023-11-15T08:28:24Z</time>
      </trkpt>
      <trkpt lat="47.29277" lon="-1.67331">
        <ele>72</ele>
        <time>2023-11-15T08:29:38Z</time>
      </trkpt>
      <trkpt lat="47.29434" lon="-1.66996">
        <ele>73</ele>
        <time>2023-11-15T08:30:28Z</time>
      </trkpt>
      <trkpt lat="47.29946" lon="-1.68181">
        <ele>68</ele>
        <time>2023-11-15T08:33:17Z</time>
      </trkpt>
      <trkpt lat="47.29952" lon="-1.68451">
        <ele>66</ele>
        <time>2023-11-15T08:33:50Z</time>
      </trkpt>
      <trkpt lat="47.30086" lon="-1.68765">
        <ele>66</ele>
        <time>2023-11-15T08:34:34Z</time>
      </trkpt>
      <trkpt lat="47.30665" lon="-1.68614">
        <ele>76</ele>
        <time>2023-11-15T08:36:19Z</time>
      </trkpt>
      <trkpt lat="47.30825" lon="-1.69043">
        <ele>71</ele>
        <time>2023-11-15T08:37:18Z</time>
      </trkpt>
      <trkpt lat="47.31056" lon="-1.69898">
        <ele>69</ele>
        <time>2023-11-15T08:39:09Z</time>
      </trkpt>
      <trkpt lat="47.31076" lon="-1.70159">
        <ele>67</ele>
        <time>2023-11-15T08:39:41Z</time>
      </trkpt>
      <trkpt lat="47.31583" lon="-1.70876">
        <ele>74</ele>
        <time>2023-11-15T08:41:46Z</time>
      </trkpt>
      <trkpt lat="47.31673" lon="-1.69741">
        <ele>76</ele>
        <time>2023-11-15T08:44:04Z</time>
      </trkpt>
      <trkpt lat="47.31567" lon="-1.68889">
        <ele>76</ele>
        <time>2023-11-15T08:45:48Z</time>
      </trkpt>
      <trkpt lat="47.31634" lon="-1.67623">
        <ele>61</ele>
        <time>2023-11-15T08:48:21Z</time>
      </trkpt>
      <trkpt lat="47.31503" lon="-1.67348">
        <ele>69</ele>
        <time>2023-11-15T08:49:02Z</time>
      </trkpt>
      <trkpt lat="47.31357" lon="-1.66336">
        <ele>64</ele>
        <time>2023-11-15T08:51:07Z</time>
      </trkpt>
      <trkpt lat="47.31145" lon="-1.66057">
        <ele>71</ele>
        <time>2023-11-15T08:51:57Z</time>
      </trkpt>
      <trkpt lat="47.31023" lon="-1.65967">
        <ele>73</ele>
        <time>2023-11-15T08:52:22Z</time>
      </trkpt>
      <trkpt lat="47.3093" lon="-1.65207">
        <ele>68</ele>
        <time>2023-11-15T08:53:55Z</time>
      </trkpt>
      <trkpt lat="47.31018" lon="-1.65087">
        <ele>66</ele>
        <time>2023-11-15T08:54:16Z</time>
      </trkpt>
      <trkpt lat="47.32202" lon="-1.64582">
        <ele>38</ele>
        <time>2023-11-15T08:57:55Z</time>
      </trkpt>
      <trkpt lat="47.32212" lon="-1.64337">
        <ele>33</ele>
        <time>2023-11-15T08:58:25Z</time>
      </trkpt>
      <trkpt lat="47.31419" lon="-1.63413">
        <ele>51</ele>
        <time>2023-11-15T09:01:25Z</time>
      </trkpt>
      <trkpt lat="47.30871" lon="-1.6311">
        <ele>65</ele>
        <time>2023-11-15T09:03:09Z</time>
      </trkpt>
      <trkpt lat="47.30597" lon="-1.63326">
        <ele>69</ele>
        <time>2023-11-15T09:04:04Z</time>
      </trkpt>
      <trkpt lat="47.29647" lon="-1.61248">
        <ele>62</ele>
        <time>2023-11-15T09:09:07Z</time>
      </trkpt>
      <trkpt lat="47.29452" lon="-1.60945">
        <ele>62</ele>
        <time>2023-11-15T09:09:57Z</time>
      </trkpt>
      <trkpt lat="47.30109" lon="-1.60346">
        <ele>61</ele>
        <time>2023-11-15T09:12:14Z</time>
      </trkpt>
      <trkpt lat="47.30451" lon="-1.60036">
        <ele>64</ele>
        <time>2023-11-15T09:13:26Z</time>
      </trkpt>
      <trkpt lat="47.29969" lon="-1.58913">
        <ele>50</ele>
        <time>2023-11-15T09:16:06Z</time>
      </trkpt>
      <trkpt lat="47.29883" lon="-1.57958">
        <ele>33</ele>
        <time>2023-11-15T09:18:02Z</time>
      </trkpt>
      <trkpt lat="47.29941" lon="-1.57728">
        <ele>35</ele>
        <time>2023-11-15T09:18:32Z</time>
      </trkpt>
      <trkpt lat="47.29743" lon="-1.57454">
        <ele>34</ele>
        <time>2023-11-15T09:19:20Z</time>
      </trkpt>
      <trkpt lat="47.29883" lon="-1.57175">
        <ele>25</ele>
        <time>2023-11-15T09:20:02Z</time>
      </trkpt>
      <trkpt lat="47.29797" lon="-1.56866">
        <ele>18</ele>
        <time>2023-11-15T09:20:43Z</time>
      </trkpt>
      <trkpt lat="47.29932" lon="-1.5672">
        <ele>18</ele>
        <time>2023-11-15T09:21:12Z</time>
      </trkpt>
      <trkpt lat="47.29813" lon="-1.56447">
        <ele>32</ele>
        <time>2023-11-15T09:21:51Z</time>
      </trkpt>
      <trkpt lat="47.29945" lon="-1.55943">
        <ele>33</ele>
        <time>2023-11-15T09:22:57Z</time>
      </trkpt>
      <trkpt lat="47.29389" lon="-1.55822">
        <ele>47</ele>
        <time>2023-11-15T09:24:37Z</time>
      </trkpt>
      <trkpt lat="47.28949" lon="-1.55907">
        <ele>41</ele>
        <time>2023-11-15T09:25:56Z</time>
      </trkpt>
      <trkpt lat="47.28636" lon="-1.55791">
        <ele>40</ele>
        <time>2023-11-15T09:26:53Z</time>
      </trkpt>
      <trkpt lat="47.2852" lon="-1.55791">
        <ele>38</ele>
        <time>2023-11-15T09:27:14Z</time>
      </trkpt>
      <trkpt lat="47.28549" lon="-1.55658">
        <ele>36</ele>
        <time>2023-11-15T09:27:31Z</time>
      </trkpt>
      <trkpt lat="47.27384" lon="-1.5513">
        <ele>38</ele>
        <time>2023-11-15T09:31:07Z</time>
      </trkpt>
      <trkpt lat="47.2697" lon="-1.55224">
        <ele>29</ele>
        <time>2023-11-15T09:32:22Z</time>
      </trkpt>
      <trkpt lat="47.26857" lon="-1.54621">
        <ele>30</ele>
        <time>2023-11-15T09:33:37Z</time>
      </trkpt>
    </trkseg>
  </trk>
</gpx>